sensor_id;sensor_type;location;lat;lon;timestamp;P1;durP1;ratioP1;P2;durP2;ratioP2
69260;SDS011;56378;52.404;20.816;2022-11-04T00:01:39;20.58;;;8.45;;
69260;SDS011;56378;52.404;20.816;2022-11-04T00:04:06;19.13;;;7.70;;
69260;SDS011;56378;52.404;20.816;2022-11-04T00:06:32;21.85;;;8.07;;
69260;SDS011;56378;52.404;20.816;2022-11-04T00:11:46;20.67;;;7.65;;
69260;SDS011;56378;52.404;20.816;2022-11-04T00:14:31;18.13;;;7.93;;
69260;SDS011;56378;52.404;20.816;2022-11-04T00:16:57;20.23;;;7.63;;
69260;SDS011;56378;52.404;20.816;2022-11-04T00:19:42;22.35;;;7.95;;
69260;SDS011;56378;52.404;20.816;2022-11-04T00:22:26;16.90;;;7.47;;
69260;SDS011;56378;52.404;20.816;2022-11-04T00:25:21;21.80;;;8.30;;
69260;SDS011;56378;52.404;20.816;2022-11-04T00:28:12;20.13;;;7.40;;
69260;SDS011;56378;52.404;20.816;2022-11-04T00:30:59;22.88;;;7.53;;
69260;SDS011;56378;52.404;20.816;2022-11-04T00:33:46;24.30;;;7.57;;
69260;SDS011;56378;52.404;20.816;2022-11-04T00:36:13;18.67;;;7.10;;
69260;SDS011;56378;52.404;20.816;2022-11-04T00:38:38;19.17;;;7.50;;
69260;SDS011;56378;52.404;20.816;2022-11-04T00:41:04;21.00;;;8.05;;
69260;SDS011;56378;52.404;20.816;2022-11-04T00:43:50;20.77;;;6.90;;
69260;SDS011;56378;52.404;20.816;2022-11-04T00:46:20;18.15;;;7.25;;
69260;SDS011;56378;52.404;20.816;2022-11-04T00:48:46;15.10;;;6.43;;
69260;SDS011;56378;52.404;20.816;2022-11-04T00:51:12;22.15;;;7.05;;
69260;SDS011;56378;52.404;20.816;2022-11-04T00:53:38;19.30;;;6.90;;
69260;SDS011;56378;52.404;20.816;2022-11-04T00:56:04;17.95;;;7.13;;
69260;SDS011;56378;52.404;20.816;2022-11-04T00:58:30;18.38;;;7.15;;
69260;SDS011;56378;52.404;20.816;2022-11-04T01:00:56;19.93;;;7.40;;
69260;SDS011;56378;52.404;20.816;2022-11-04T01:03:21;16.00;;;6.70;;
69260;SDS011;56378;52.404;20.816;2022-11-04T01:05:47;22.17;;;7.30;;
69260;SDS011;56378;52.404;20.816;2022-11-04T01:08:13;22.02;;;6.88;;
69260;SDS011;56378;52.404;20.816;2022-11-04T01:10:38;25.40;;;7.50;;
69260;SDS011;56378;52.404;20.816;2022-11-04T01:13:11;19.08;;;7.20;;
69260;SDS011;56378;52.404;20.816;2022-11-04T01:15:37;19.00;;;7.00;;
69260;SDS011;56378;52.404;20.816;2022-11-04T01:18:03;19.95;;;7.90;;
69260;SDS011;56378;52.404;20.816;2022-11-04T01:20:30;22.77;;;7.33;;
69260;SDS011;56378;52.404;20.816;2022-11-04T01:22:56;18.05;;;7.18;;
69260;SDS011;56378;52.404;20.816;2022-11-04T01:25:22;21.60;;;6.93;;
69260;SDS011;56378;52.404;20.816;2022-11-04T01:27:48;20.53;;;6.80;;
69260;SDS011;56378;52.404;20.816;2022-11-04T01:30:13;20.70;;;6.97;;
69260;SDS011;56378;52.404;20.816;2022-11-04T01:32:39;17.17;;;6.45;;
69260;SDS011;56378;52.404;20.816;2022-11-04T01:35:05;18.40;;;7.40;;
69260;SDS011;56378;52.404;20.816;2022-11-04T01:37:31;18.58;;;6.82;;
69260;SDS011;56378;52.404;20.816;2022-11-04T01:39:57;18.48;;;6.85;;
69260;SDS011;56378;52.404;20.816;2022-11-04T01:42:23;22.03;;;6.80;;
69260;SDS011;56378;52.404;20.816;2022-11-04T01:44:58;19.40;;;7.32;;
69260;SDS011;56378;52.404;20.816;2022-11-04T01:50:20;18.00;;;6.77;;
69260;SDS011;56378;52.404;20.816;2022-11-04T01:52:50;19.48;;;6.75;;
69260;SDS011;56378;52.404;20.816;2022-11-04T01:55:19;16.08;;;6.40;;
69260;SDS011;56378;52.404;20.816;2022-11-04T01:57:48;15.13;;;6.60;;
69260;SDS011;56378;52.404;20.816;2022-11-04T02:00:17;19.40;;;6.65;;
69260;SDS011;56378;52.404;20.816;2022-11-04T02:02:45;18.50;;;6.30;;
69260;SDS011;56378;52.404;20.816;2022-11-04T02:05:18;19.42;;;6.85;;
69260;SDS011;56378;52.404;20.816;2022-11-04T02:07:45;15.10;;;6.60;;
69260;SDS011;56378;52.404;20.816;2022-11-04T02:10:14;18.05;;;7.00;;
69260;SDS011;56378;52.404;20.816;2022-11-04T02:12:41;17.05;;;6.25;;
69260;SDS011;56378;52.404;20.816;2022-11-04T02:15:38;18.57;;;7.17;;
69260;SDS011;56378;52.404;20.816;2022-11-04T02:18:25;16.25;;;5.78;;
69260;SDS011;56378;52.404;20.816;2022-11-04T02:27:25;17.90;;;6.60;;
69260;SDS011;56378;52.404;20.816;2022-11-04T02:46:36;25.10;;;7.03;;
69260;SDS011;56378;52.404;20.816;2022-11-04T02:48:46;17.00;;;6.30;;
69260;SDS011;56378;52.404;20.816;2022-11-04T02:51:31;16.07;;;6.13;;
69260;SDS011;56378;52.404;20.816;2022-11-04T02:54:14;15.00;;;6.20;;
69260;SDS011;56378;52.404;20.816;2022-11-04T02:56:42;17.65;;;6.38;;
69260;SDS011;56378;52.404;20.816;2022-11-04T02:59:17;16.38;;;5.82;;
69260;SDS011;56378;52.404;20.816;2022-11-04T03:01:48;18.83;;;6.55;;
69260;SDS011;56378;52.404;20.816;2022-11-04T03:04:17;19.10;;;6.37;;
69260;SDS011;56378;52.404;20.816;2022-11-04T03:06:48;17.40;;;5.85;;
69260;SDS011;56378;52.404;20.816;2022-11-04T03:09:17;17.73;;;5.63;;
69260;SDS011;56378;52.404;20.816;2022-11-04T03:11:46;19.17;;;6.32;;
69260;SDS011;56378;52.404;20.816;2022-11-04T03:14:22;17.55;;;5.70;;
69260;SDS011;56378;52.404;20.816;2022-11-04T03:16:53;19.00;;;6.50;;
69260;SDS011;56378;52.404;20.816;2022-11-04T03:19:28;19.10;;;6.13;;
69260;SDS011;56378;52.404;20.816;2022-11-04T03:22:21;17.67;;;5.55;;
69260;SDS011;56378;52.404;20.816;2022-11-04T03:24:48;17.33;;;6.10;;
69260;SDS011;56378;52.404;20.816;2022-11-04T03:30:05;14.77;;;5.50;;
69260;SDS011;56378;52.404;20.816;2022-11-04T03:32:39;14.68;;;5.95;;
69260;SDS011;56378;52.404;20.816;2022-11-04T03:35:06;17.02;;;5.35;;
69260;SDS011;56378;52.404;20.816;2022-11-04T03:37:33;18.73;;;5.40;;
69260;SDS011;56378;52.404;20.816;2022-11-04T03:39:59;13.10;;;5.37;;
69260;SDS011;56378;52.404;20.816;2022-11-04T03:42:26;17.58;;;5.93;;
69260;SDS011;56378;52.404;20.816;2022-11-04T03:44:54;15.93;;;6.15;;
69260;SDS011;56378;52.404;20.816;2022-11-04T03:47:21;14.10;;;5.43;;
69260;SDS011;56378;52.404;20.816;2022-11-04T03:49:53;16.45;;;5.57;;
69260;SDS011;56378;52.404;20.816;2022-11-04T03:52:46;13.10;;;5.77;;
69260;SDS011;56378;52.404;20.816;2022-11-04T03:55:12;16.63;;;5.35;;
69260;SDS011;56378;52.404;20.816;2022-11-04T03:57:51;16.33;;;6.17;;
69260;SDS011;56378;52.404;20.816;2022-11-04T04:00:25;15.50;;;5.38;;
69260;SDS011;56378;52.404;20.816;2022-11-04T04:06:22;15.63;;;5.70;;
69260;SDS011;56378;52.404;20.816;2022-11-04T04:08:45;16.00;;;5.30;;
69260;SDS011;56378;52.404;20.816;2022-11-04T04:13:52;14.68;;;5.50;;
69260;SDS011;56378;52.404;20.816;2022-11-04T04:16:37;22.83;;;6.25;;
69260;SDS011;56378;52.404;20.816;2022-11-04T04:19:13;13.25;;;5.25;;
69260;SDS011;56378;52.404;20.816;2022-11-04T04:24:17;11.73;;;5.30;;
69260;SDS011;56378;52.404;20.816;2022-11-04T04:27:04;14.55;;;5.43;;
69260;SDS011;56378;52.404;20.816;2022-11-04T04:29:49;16.50;;;6.15;;
69260;SDS011;56378;52.404;20.816;2022-11-04T04:32:16;13.57;;;5.28;;
69260;SDS011;56378;52.404;20.816;2022-11-04T04:34:43;16.50;;;5.35;;
69260;SDS011;56378;52.404;20.816;2022-11-04T04:37:19;15.03;;;6.00;;
69260;SDS011;56378;52.404;20.816;2022-11-04T04:42:36;13.50;;;5.10;;
69260;SDS011;56378;52.404;20.816;2022-11-04T04:45:22;16.27;;;5.70;;
69260;SDS011;56378;52.404;20.816;2022-11-04T04:47:59;13.13;;;5.72;;
69260;SDS011;56378;52.404;20.816;2022-11-04T04:50:30;16.77;;;5.57;;
69260;SDS011;56378;52.404;20.816;2022-11-04T04:53:00;13.77;;;5.00;;
69260;SDS011;56378;52.404;20.816;2022-11-04T04:55:28;14.17;;;5.10;;
69260;SDS011;56378;52.404;20.816;2022-11-04T04:57:55;14.55;;;5.55;;
69260;SDS011;56378;52.404;20.816;2022-11-04T05:00:22;16.55;;;5.65;;
69260;SDS011;56378;52.404;20.816;2022-11-04T05:02:49;16.60;;;5.88;;
69260;SDS011;56378;52.404;20.816;2022-11-04T05:05:15;14.03;;;5.53;;
69260;SDS011;56378;52.404;20.816;2022-11-04T05:07:41;17.67;;;5.68;;
69260;SDS011;56378;52.404;20.816;2022-11-04T05:10:07;16.38;;;5.55;;
69260;SDS011;56378;52.404;20.816;2022-11-04T05:12:35;16.88;;;5.72;;
69260;SDS011;56378;52.404;20.816;2022-11-04T05:15:20;16.57;;;5.87;;
69260;SDS011;56378;52.404;20.816;2022-11-04T05:17:46;14.25;;;5.45;;
69260;SDS011;56378;52.404;20.816;2022-11-04T05:20:12;15.52;;;6.15;;
69260;SDS011;56378;52.404;20.816;2022-11-04T05:22:38;15.73;;;5.70;;
69260;SDS011;56378;52.404;20.816;2022-11-04T05:25:04;14.32;;;5.65;;
69260;SDS011;56378;52.404;20.816;2022-11-04T05:27:30;15.43;;;5.65;;
69260;SDS011;56378;52.404;20.816;2022-11-04T05:29:56;14.07;;;5.53;;
69260;SDS011;56378;52.404;20.816;2022-11-04T05:34:53;14.27;;;5.95;;
69260;SDS011;56378;52.404;20.816;2022-11-04T05:37:19;14.55;;;5.57;;
69260;SDS011;56378;52.404;20.816;2022-11-04T05:39:46;17.93;;;5.60;;
69260;SDS011;56378;52.404;20.816;2022-11-04T05:42:12;15.05;;;5.85;;
69260;SDS011;56378;52.404;20.816;2022-11-04T05:44:37;13.43;;;5.25;;
69260;SDS011;56378;52.404;20.816;2022-11-04T05:47:06;17.23;;;5.33;;
69260;SDS011;56378;52.404;20.816;2022-11-04T05:49:32;15.80;;;5.80;;
69260;SDS011;56378;52.404;20.816;2022-11-04T05:51:58;12.80;;;5.20;;
69260;SDS011;56378;52.404;20.816;2022-11-04T05:54:23;16.67;;;6.00;;
69260;SDS011;56378;52.404;20.816;2022-11-04T05:56:50;15.65;;;5.85;;
69260;SDS011;56378;52.404;20.816;2022-11-04T05:59:17;18.45;;;5.65;;
69260;SDS011;56378;52.404;20.816;2022-11-04T06:01:43;14.68;;;6.03;;
69260;SDS011;56378;52.404;20.816;2022-11-04T06:04:13;12.23;;;5.73;;
69260;SDS011;56378;52.404;20.816;2022-11-04T06:06:41;14.52;;;5.40;;
69260;SDS011;56378;52.404;20.816;2022-11-04T06:09:07;13.93;;;5.50;;
69260;SDS011;56378;52.404;20.816;2022-11-04T06:11:33;21.30;;;7.60;;
69260;SDS011;56378;52.404;20.816;2022-11-04T06:13:59;15.97;;;6.73;;
69260;SDS011;56378;52.404;20.816;2022-11-04T06:16:26;16.50;;;6.80;;
69260;SDS011;56378;52.404;20.816;2022-11-04T06:18:52;19.85;;;7.50;;
69260;SDS011;56378;52.404;20.816;2022-11-04T06:21:23;16.55;;;7.80;;
69260;SDS011;56378;52.404;20.816;2022-11-04T06:23:52;18.83;;;7.05;;
69260;SDS011;56378;52.404;20.816;2022-11-04T06:26:21;16.87;;;7.63;;
69260;SDS011;56378;52.404;20.816;2022-11-04T06:28:51;17.10;;;6.53;;
69260;SDS011;56378;52.404;20.816;2022-11-04T06:31:18;16.67;;;7.78;;
69260;SDS011;56378;52.404;20.816;2022-11-04T06:33:52;15.70;;;6.70;;
69260;SDS011;56378;52.404;20.816;2022-11-04T06:36:18;16.33;;;6.37;;
69260;SDS011;56378;52.404;20.816;2022-11-04T06:38:44;22.70;;;10.15;;
69260;SDS011;56378;52.404;20.816;2022-11-04T06:41:15;26.47;;;11.70;;
69260;SDS011;56378;52.404;20.816;2022-11-04T06:43:41;27.58;;;11.80;;
69260;SDS011;56378;52.404;20.816;2022-11-04T06:46:22;19.52;;;8.05;;
69260;SDS011;56378;52.404;20.816;2022-11-04T06:48:48;18.40;;;6.57;;
69260;SDS011;56378;52.404;20.816;2022-11-04T06:51:14;16.15;;;6.55;;
69260;SDS011;56378;52.404;20.816;2022-11-04T06:53:39;15.73;;;6.37;;
69260;SDS011;56378;52.404;20.816;2022-11-04T06:56:05;14.95;;;6.72;;
69260;SDS011;56378;52.404;20.816;2022-11-04T06:58:32;13.77;;;5.77;;
69260;SDS011;56378;52.404;20.816;2022-11-04T07:00:57;13.98;;;5.55;;
69260;SDS011;56378;52.404;20.816;2022-11-04T07:03:23;18.55;;;6.00;;
69260;SDS011;56378;52.404;20.816;2022-11-04T07:05:49;12.23;;;5.60;;
69260;SDS011;56378;52.404;20.816;2022-11-04T07:08:15;13.40;;;5.80;;
69260;SDS011;56378;52.404;20.816;2022-11-04T07:10:40;15.47;;;5.50;;
69260;SDS011;56378;52.404;20.816;2022-11-04T07:13:06;17.05;;;6.22;;
69260;SDS011;56378;52.404;20.816;2022-11-04T07:15:32;12.70;;;5.30;;
69260;SDS011;56378;52.404;20.816;2022-11-04T07:17:58;12.93;;;6.25;;
69260;SDS011;56378;52.404;20.816;2022-11-04T07:20:24;16.00;;;5.85;;
69260;SDS011;56378;52.404;20.816;2022-11-04T07:22:49;15.97;;;6.27;;
69260;SDS011;56378;52.404;20.816;2022-11-04T07:25:17;16.70;;;5.32;;
69260;SDS011;56378;52.404;20.816;2022-11-04T07:27:43;13.70;;;5.70;;
69260;SDS011;56378;52.404;20.816;2022-11-04T07:30:09;15.25;;;5.75;;
69260;SDS011;56378;52.404;20.816;2022-11-04T07:32:35;13.40;;;5.60;;
69260;SDS011;56378;52.404;20.816;2022-11-04T07:35:01;17.30;;;6.10;;
69260;SDS011;56378;52.404;20.816;2022-11-04T07:37:26;14.23;;;5.80;;
69260;SDS011;56378;52.404;20.816;2022-11-04T07:39:52;13.85;;;5.65;;
69260;SDS011;56378;52.404;20.816;2022-11-04T07:42:17;16.60;;;5.50;;
69260;SDS011;56378;52.404;20.816;2022-11-04T07:44:44;14.18;;;5.90;;
69260;SDS011;56378;52.404;20.816;2022-11-04T07:47:11;12.80;;;5.53;;
69260;SDS011;56378;52.404;20.816;2022-11-04T07:49:37;15.23;;;5.63;;
69260;SDS011;56378;52.404;20.816;2022-11-04T07:52:02;16.77;;;5.85;;
69260;SDS011;56378;52.404;20.816;2022-11-04T07:54:28;12.90;;;6.20;;
69260;SDS011;56378;52.404;20.816;2022-11-04T07:56:54;14.68;;;6.70;;
69260;SDS011;56378;52.404;20.816;2022-11-04T07:59:19;14.27;;;6.37;;
69260;SDS011;56378;52.404;20.816;2022-11-04T08:01:45;19.35;;;7.80;;
69260;SDS011;56378;52.404;20.816;2022-11-04T08:04:11;15.83;;;6.50;;
69260;SDS011;56378;52.404;20.816;2022-11-04T08:06:36;18.03;;;7.10;;
69260;SDS011;56378;52.404;20.816;2022-11-04T08:09:02;17.80;;;7.47;;
69260;SDS011;56378;52.404;20.816;2022-11-04T08:11:28;17.88;;;7.13;;
69260;SDS011;56378;52.404;20.816;2022-11-04T08:13:55;14.52;;;6.60;;
69260;SDS011;56378;52.404;20.816;2022-11-04T08:16:21;16.13;;;6.50;;
69260;SDS011;56378;52.404;20.816;2022-11-04T08:18:49;16.85;;;6.97;;
69260;SDS011;56378;52.404;20.816;2022-11-04T08:21:19;15.10;;;6.80;;
69260;SDS011;56378;52.404;20.816;2022-11-04T08:23:45;15.20;;;6.57;;
69260;SDS011;56378;52.404;20.816;2022-11-04T08:26:14;14.65;;;6.53;;
69260;SDS011;56378;52.404;20.816;2022-11-04T08:28:42;14.23;;;6.28;;
69260;SDS011;56378;52.404;20.816;2022-11-04T08:31:09;15.93;;;6.28;;
69260;SDS011;56378;52.404;20.816;2022-11-04T08:33:35;14.75;;;5.95;;
69260;SDS011;56378;52.404;20.816;2022-11-04T08:36:03;15.33;;;6.87;;
69260;SDS011;56378;52.404;20.816;2022-11-04T08:38:31;15.73;;;6.00;;
69260;SDS011;56378;52.404;20.816;2022-11-04T08:40:58;16.80;;;6.07;;
69260;SDS011;56378;52.404;20.816;2022-11-04T08:43:25;15.55;;;6.38;;
69260;SDS011;56378;52.404;20.816;2022-11-04T08:45:51;13.90;;;5.97;;
69260;SDS011;56378;52.404;20.816;2022-11-04T08:48:17;16.60;;;6.75;;
69260;SDS011;56378;52.404;20.816;2022-11-04T08:50:47;18.13;;;6.70;;
69260;SDS011;56378;52.404;20.816;2022-11-04T08:53:14;15.68;;;7.55;;
69260;SDS011;56378;52.404;20.816;2022-11-04T08:55:40;16.93;;;8.53;;
69260;SDS011;56378;52.404;20.816;2022-11-04T08:58:05;14.63;;;6.80;;
69260;SDS011;56378;52.404;20.816;2022-11-04T09:00:31;17.73;;;7.10;;
69260;SDS011;56378;52.404;20.816;2022-11-04T09:02:57;18.83;;;7.00;;
69260;SDS011;56378;52.404;20.816;2022-11-04T09:05:23;15.85;;;7.10;;
69260;SDS011;56378;52.404;20.816;2022-11-04T09:07:49;13.98;;;6.80;;
69260;SDS011;56378;52.404;20.816;2022-11-04T09:10:15;24.87;;;8.03;;
69260;SDS011;56378;52.404;20.816;2022-11-04T09:12:41;14.70;;;7.97;;
69260;SDS011;56378;52.404;20.816;2022-11-04T09:15:08;15.13;;;6.67;;
69260;SDS011;56378;52.404;20.816;2022-11-04T09:17:34;17.35;;;7.05;;
69260;SDS011;56378;52.404;20.816;2022-11-04T09:19:59;14.60;;;6.93;;
69260;SDS011;56378;52.404;20.816;2022-11-04T09:22:26;16.13;;;7.00;;
69260;SDS011;56378;52.404;20.816;2022-11-04T09:24:52;15.80;;;6.25;;
69260;SDS011;56378;52.404;20.816;2022-11-04T09:27:17;16.63;;;6.80;;
69260;SDS011;56378;52.404;20.816;2022-11-04T09:29:43;16.13;;;7.37;;
69260;SDS011;56378;52.404;20.816;2022-11-04T09:32:10;16.35;;;6.90;;
69260;SDS011;56378;52.404;20.816;2022-11-04T09:34:35;16.77;;;6.65;;
69260;SDS011;56378;52.404;20.816;2022-11-04T09:37:01;15.13;;;6.47;;
69260;SDS011;56378;52.404;20.816;2022-11-04T09:39:27;20.17;;;8.48;;
69260;SDS011;56378;52.404;20.816;2022-11-04T09:44:40;12.15;;;6.70;;
69260;SDS011;56378;52.404;20.816;2022-11-04T09:47:18;18.23;;;7.57;;
69260;SDS011;56378;52.404;20.816;2022-11-04T09:49:46;16.98;;;7.70;;
69260;SDS011;56378;52.404;20.816;2022-11-04T09:52:59;17.07;;;7.53;;
69260;SDS011;56378;52.404;20.816;2022-11-04T09:57:33;16.00;;;6.25;;
69260;SDS011;56378;52.404;20.816;2022-11-04T09:59:59;16.63;;;7.40;;
69260;SDS011;56378;52.404;20.816;2022-11-04T10:10:38;17.45;;;7.25;;
69260;SDS011;56378;52.404;20.816;2022-11-04T10:16:13;22.08;;;10.15;;
69260;SDS011;56378;52.404;20.816;2022-11-04T10:24:45;19.60;;;7.28;;
69260;SDS011;56378;52.404;20.816;2022-11-04T10:27:24;18.00;;;7.20;;
69260;SDS011;56378;52.404;20.816;2022-11-04T10:29:54;26.17;;;8.13;;
69260;SDS011;56378;52.404;20.816;2022-11-04T10:32:27;18.17;;;7.27;;
69260;SDS011;56378;52.404;20.816;2022-11-04T10:35:04;17.50;;;7.30;;
69260;SDS011;56378;52.404;20.816;2022-11-04T10:37:35;22.05;;;7.80;;
69260;SDS011;56378;52.404;20.816;2022-11-04T10:40:23;19.13;;;7.13;;
69260;SDS011;56378;52.404;20.816;2022-11-04T10:43:00;17.80;;;7.70;;
69260;SDS011;56378;52.404;20.816;2022-11-04T10:45:33;18.75;;;6.85;;
69260;SDS011;56378;52.404;20.816;2022-11-04T10:48:13;19.38;;;8.18;;
69260;SDS011;56378;52.404;20.816;2022-11-04T10:50:55;17.92;;;6.63;;
69260;SDS011;56378;52.404;20.816;2022-11-04T10:53:24;16.48;;;7.45;;
69260;SDS011;56378;52.404;20.816;2022-11-04T10:58:46;16.02;;;6.80;;
69260;SDS011;56378;52.404;20.816;2022-11-04T11:01:28;16.48;;;6.13;;
69260;SDS011;56378;52.404;20.816;2022-11-04T11:03:57;15.50;;;6.95;;
69260;SDS011;56378;52.404;20.816;2022-11-04T11:06:27;15.82;;;6.63;;
69260;SDS011;56378;52.404;20.816;2022-11-04T11:11:47;16.00;;;6.97;;
69260;SDS011;56378;52.404;20.816;2022-11-04T11:16:52;18.13;;;7.97;;
69260;SDS011;56378;52.404;20.816;2022-11-04T11:19:19;14.32;;;6.60;;
69260;SDS011;56378;52.404;20.816;2022-11-04T11:21:47;17.20;;;6.90;;
69260;SDS011;56378;52.404;20.816;2022-11-04T11:24:17;16.67;;;7.65;;
69260;SDS011;56378;52.404;20.816;2022-11-04T11:26:45;14.98;;;6.88;;
69260;SDS011;56378;52.404;20.816;2022-11-04T11:29:17;14.38;;;7.18;;
69260;SDS011;56378;52.404;20.816;2022-11-04T11:31:47;20.70;;;9.18;;
69260;SDS011;56378;52.404;20.816;2022-11-04T11:34:14;15.00;;;6.83;;
69260;SDS011;56378;52.404;20.816;2022-11-04T11:36:46;14.82;;;6.57;;
69260;SDS011;56378;52.404;20.816;2022-11-04T11:39:14;19.00;;;7.10;;
69260;SDS011;56378;52.404;20.816;2022-11-04T11:47:00;14.77;;;6.83;;
69260;SDS011;56378;52.404;20.816;2022-11-04T11:49:29;16.65;;;7.00;;
69260;SDS011;56378;52.404;20.816;2022-11-04T11:54:52;13.60;;;5.88;;
69260;SDS011;56378;52.404;20.816;2022-11-04T11:57:40;12.07;;;5.95;;
69260;SDS011;56378;52.404;20.816;2022-11-04T12:00:19;16.47;;;7.00;;
69260;SDS011;56378;52.404;20.816;2022-11-04T12:03:14;15.07;;;6.22;;
69260;SDS011;56378;52.404;20.816;2022-11-04T12:05:46;14.00;;;6.30;;
69260;SDS011;56378;52.404;20.816;2022-11-04T12:10:50;16.67;;;6.40;;
69260;SDS011;56378;52.404;20.816;2022-11-04T12:13:35;16.57;;;6.50;;
69260;SDS011;56378;52.404;20.816;2022-11-04T12:24:44;14.25;;;6.30;;
69260;SDS011;56378;52.404;20.816;2022-11-04T12:27:28;14.33;;;6.60;;
69260;SDS011;56378;52.404;20.816;2022-11-04T12:46:38;15.10;;;6.43;;
69260;SDS011;56378;52.404;20.816;2022-11-04T12:55:08;17.23;;;7.07;;
69260;SDS011;56378;52.404;20.816;2022-11-04T13:02:31;19.20;;;7.20;;
69260;SDS011;56378;52.404;20.816;2022-11-04T13:07:56;15.80;;;5.57;;
69260;SDS011;56378;52.404;20.816;2022-11-04T13:10:33;15.45;;;5.20;;
69260;SDS011;56378;52.404;20.816;2022-11-04T13:13:03;14.07;;;5.75;;
69260;SDS011;56378;52.404;20.816;2022-11-04T13:15:31;13.77;;;5.68;;
69260;SDS011;56378;52.404;20.816;2022-11-04T13:18:08;11.23;;;5.47;;
69260;SDS011;56378;52.404;20.816;2022-11-04T13:23:33;14.18;;;6.13;;
69260;SDS011;56378;52.404;20.816;2022-11-04T13:26:05;13.93;;;5.35;;
69260;SDS011;56378;52.404;20.816;2022-11-04T13:28:35;13.85;;;5.75;;
69260;SDS011;56378;52.404;20.816;2022-11-04T13:33:53;11.83;;;5.23;;
69260;SDS011;56378;52.404;20.816;2022-11-04T13:39:20;13.02;;;5.28;;
69260;SDS011;56378;52.404;20.816;2022-11-04T13:42:10;13.80;;;6.05;;
69260;SDS011;56378;52.404;20.816;2022-11-04T13:44:54;19.52;;;7.50;;
69260;SDS011;56378;52.404;20.816;2022-11-04T13:47:33;35.00;;;10.67;;
69260;SDS011;56378;52.404;20.816;2022-11-04T13:50:01;29.33;;;8.18;;
69260;SDS011;56378;52.404;20.816;2022-11-04T13:52:29;54.08;;;14.70;;
69260;SDS011;56378;52.404;20.816;2022-11-04T13:55:00;30.42;;;10.80;;
69260;SDS011;56378;52.404;20.816;2022-11-04T13:57:31;13.15;;;6.15;;
69260;SDS011;56378;52.404;20.816;2022-11-04T14:00:29;13.23;;;5.53;;
69260;SDS011;56378;52.404;20.816;2022-11-04T14:02:57;13.02;;;5.70;;
69260;SDS011;56378;52.404;20.816;2022-11-04T14:08:08;11.88;;;5.05;;
69260;SDS011;56378;52.404;20.816;2022-11-04T14:16:01;11.93;;;5.07;;
69260;SDS011;56378;52.404;20.816;2022-11-04T14:18:28;11.75;;;5.18;;
69260;SDS011;56378;52.404;20.816;2022-11-04T14:21:21;14.35;;;5.18;;
69260;SDS011;56378;52.404;20.816;2022-11-04T14:26:21;12.63;;;5.30;;
69260;SDS011;56378;52.404;20.816;2022-11-04T14:29:01;13.20;;;5.22;;
69260;SDS011;56378;52.404;20.816;2022-11-04T14:31:36;12.35;;;4.80;;
69260;SDS011;56378;52.404;20.816;2022-11-04T14:34:16;12.90;;;4.93;;
69260;SDS011;56378;52.404;20.816;2022-11-04T14:36:54;12.93;;;5.80;;
69260;SDS011;56378;52.404;20.816;2022-11-04T14:39:22;13.47;;;4.93;;
69260;SDS011;56378;52.404;20.816;2022-11-04T14:41:59;10.93;;;4.97;;
69260;SDS011;56378;52.404;20.816;2022-11-04T14:47:06;20.73;;;8.27;;
69260;SDS011;56378;52.404;20.816;2022-11-04T14:52:20;22.47;;;8.70;;
69260;SDS011;56378;52.404;20.816;2022-11-04T14:54:47;22.38;;;8.80;;
69260;SDS011;56378;52.404;20.816;2022-11-04T14:59:47;18.88;;;7.00;;
69260;SDS011;56378;52.404;20.816;2022-11-04T15:02:27;14.82;;;6.10;;
69260;SDS011;56378;52.404;20.816;2022-11-04T15:04:59;12.17;;;5.87;;
69260;SDS011;56378;52.404;20.816;2022-11-04T15:07:31;12.02;;;5.57;;
69260;SDS011;56378;52.404;20.816;2022-11-04T15:10:02;15.48;;;5.63;;
69260;SDS011;56378;52.404;20.816;2022-11-04T15:12:43;10.50;;;5.20;;
69260;SDS011;56378;52.404;20.816;2022-11-04T15:15:58;12.73;;;5.35;;
69260;SDS011;56378;52.404;20.816;2022-11-04T15:18:18;15.93;;;6.00;;
69260;SDS011;56378;52.404;20.816;2022-11-04T15:20:51;13.65;;;6.10;;
69260;SDS011;56378;52.404;20.816;2022-11-04T15:23:25;15.40;;;6.40;;
69260;SDS011;56378;52.404;20.816;2022-11-04T15:25:53;14.63;;;6.10;;
69260;SDS011;56378;52.404;20.816;2022-11-04T15:28:25;15.35;;;6.30;;
69260;SDS011;56378;52.404;20.816;2022-11-04T15:33:40;12.30;;;5.70;;
69260;SDS011;56378;52.404;20.816;2022-11-04T15:36:09;14.27;;;6.03;;
69260;SDS011;56378;52.404;20.816;2022-11-04T15:38:40;12.60;;;5.45;;
69260;SDS011;56378;52.404;20.816;2022-11-04T15:41:11;13.68;;;6.07;;
69260;SDS011;56378;52.404;20.816;2022-11-04T15:43:58;13.77;;;5.80;;
69260;SDS011;56378;52.404;20.816;2022-11-04T15:46:24;15.70;;;6.35;;
69260;SDS011;56378;52.404;20.816;2022-11-04T15:49:00;17.80;;;7.78;;
69260;SDS011;56378;52.404;20.816;2022-11-04T15:51:28;17.35;;;8.30;;
69260;SDS011;56378;52.404;20.816;2022-11-04T15:54:02;17.55;;;8.00;;
69260;SDS011;56378;52.404;20.816;2022-11-04T15:56:41;15.87;;;7.80;;
69260;SDS011;56378;52.404;20.816;2022-11-04T15:59:17;17.40;;;7.93;;
69260;SDS011;56378;52.404;20.816;2022-11-04T16:01:48;16.33;;;7.47;;
69260;SDS011;56378;52.404;20.816;2022-11-04T16:04:16;13.52;;;6.18;;
69260;SDS011;56378;52.404;20.816;2022-11-04T16:06:44;16.45;;;7.13;;
69260;SDS011;56378;52.404;20.816;2022-11-04T16:11:38;16.08;;;7.72;;
69260;SDS011;56378;52.404;20.816;2022-11-04T16:14:22;18.77;;;7.00;;
69260;SDS011;56378;52.404;20.816;2022-11-04T16:16:51;17.35;;;7.60;;
69260;SDS011;56378;52.404;20.816;2022-11-04T16:19:21;18.50;;;8.50;;
69260;SDS011;56378;52.404;20.816;2022-11-04T16:22:25;16.63;;;7.60;;
69260;SDS011;56378;52.404;20.816;2022-11-04T16:24:48;21.55;;;8.45;;
69260;SDS011;56378;52.404;20.816;2022-11-04T16:27:19;15.20;;;7.80;;
69260;SDS011;56378;52.404;20.816;2022-11-04T16:30:29;19.17;;;8.10;;
69260;SDS011;56378;52.404;20.816;2022-11-04T16:32:39;25.70;;;9.47;;
69260;SDS011;56378;52.404;20.816;2022-11-04T16:35:17;21.95;;;10.35;;
69260;SDS011;56378;52.404;20.816;2022-11-04T16:37:46;18.67;;;7.57;;
69260;SDS011;56378;52.404;20.816;2022-11-04T16:40:12;21.05;;;9.05;;
69260;SDS011;56378;52.404;20.816;2022-11-04T16:42:39;23.35;;;9.82;;
69260;SDS011;56378;52.404;20.816;2022-11-04T16:45:06;22.30;;;10.20;;
69260;SDS011;56378;52.404;20.816;2022-11-04T16:47:40;24.85;;;9.88;;
69260;SDS011;56378;52.404;20.816;2022-11-04T16:50:11;28.02;;;12.45;;
69260;SDS011;56378;52.404;20.816;2022-11-04T16:52:40;31.20;;;12.63;;
69260;SDS011;56378;52.404;20.816;2022-11-04T16:55:07;31.45;;;11.90;;
69260;SDS011;56378;52.404;20.816;2022-11-04T16:57:35;30.63;;;12.23;;
69260;SDS011;56378;52.404;20.816;2022-11-04T17:00:04;29.17;;;10.88;;
69260;SDS011;56378;52.404;20.816;2022-11-04T17:02:32;28.50;;;11.27;;
69260;SDS011;56378;52.404;20.816;2022-11-04T17:05:02;52.10;;;21.07;;
69260;SDS011;56378;52.404;20.816;2022-11-04T17:07:29;42.08;;;18.48;;
69260;SDS011;56378;52.404;20.816;2022-11-04T17:09:55;35.78;;;14.50;;
69260;SDS011;56378;52.404;20.816;2022-11-04T17:12:20;28.13;;;11.70;;
69260;SDS011;56378;52.404;20.816;2022-11-04T17:14:46;24.02;;;10.82;;
69260;SDS011;56378;52.404;20.816;2022-11-04T17:17:12;26.00;;;12.30;;
69260;SDS011;56378;52.404;20.816;2022-11-04T17:19:38;24.73;;;11.20;;